Time;durP1;ratioP1;P1;durP2;ratioP2;P2;SDS_P1;SDS_P2;PMS_P1;PMS_P2;Temp;Humidity;BMP_temperature;BMP_pressure;BME280_temperature;BME280_humidity;BME280_pressure;Samples;Min_cycle;Max_cycle;Signal;HPM_P1;HPM_P2
2021/03/23 00:01:15;;;;;;;10.25;4.68;;;7.70;79.60;;;7.92;64.22;101499.13;5024266;28;20049;-81
2021/03/23 00:03:45;;;;;;;8.90;5.13;;;7.70;79.40;;;7.87;65.19;101498.69;5023191;28;20107;-80
2021/03/23 00:06:15;;;;;;;9.90;5.63;;;7.70;79.90;;;7.87;64.85;101496.00;5023823;28;20887;-80
2021/03/23 00:08:44;;;;;;;9.65;5.07;;;7.70;79.70;;;7.88;64.81;101500.44;5022772;28;20042;-80
2021/03/23 00:11:21;;;;;;;11.85;6.07;;;7.70;79.60;;;7.88;65.30;101489.59;5030496;28;20053;-81
2021/03/23 00:13:49;;;;;;;9.70;5.18;;;7.70;80.00;;;7.91;65.36;101499.28;5022404;28;20046;-81
2021/03/23 00:16:20;;;;;;;9.23;5.43;;;7.70;79.90;;;7.90;65.02;101493.00;5030059;28;20046;-81
2021/03/23 00:18:48;;;;;;;;;;;7.70;79.70;;;7.86;65.00;101490.72;5025002;28;20071;-81
2021/03/23 00:21:16;;;;;;;10.95;4.50;;;7.70;80.00;;;7.88;64.71;101497.72;5023212;28;19949;-80
2021/03/23 00:23:44;;;;;;;8.52;4.53;;;7.70;80.00;;;7.87;65.29;101495.13;5022731;28;20052;-81
2021/03/23 00:26:14;;;;;;;7.30;4.50;;;7.70;79.90;;;7.85;65.70;101494.44;5022895;28;20045;-80
2021/03/23 00:28:47;;;;;;;11.60;5.28;;;7.70;80.30;;;7.83;65.74;101495.41;5025036;28;20172;-80
2021/03/23 00:31:14;;;;;;;12.13;4.93;;;7.60;80.20;;;7.86;65.53;101485.28;5023369;28;20763;-80
2021/03/23 00:33:41;;;;;;;7.90;4.53;;;7.60;80.10;;;7.87;65.36;101487.84;5021584;28;20050;-81
2021/03/23 00:36:10;;;;;;;8.77;4.65;;;7.70;79.70;;;7.85;64.56;101489.00;5025143;28;20102;-81
2021/03/23 00:38:39;;;;;;;7.47;4.65;;;7.70;80.00;;;7.83;65.18;101492.72;5024481;28;20046;-80
2021/03/23 00:41:07;;;;;;;9.32;4.68;;;7.70;80.10;;;7.85;65.66;101495.28;5024002;28;20100;-80
2021/03/23 00:43:36;;;;;;;10.45;4.97;;;7.70;80.30;;;7.84;65.33;101488.13;5039944;28;20049;-81
2021/03/23 00:46:03;;;;;;;11.00;4.93;;;7.60;80.30;;;7.80;65.60;101492.13;5022936;28;20054;-81
2021/03/23 00:48:30;;;;;;;9.43;5.40;;;7.60;80.40;;;7.77;65.65;101496.00;5022171;28;20053;-81
2021/03/23 00:50:57;;;;;;;10.35;5.70;;;7.60;80.40;;;7.79;65.78;101485.88;5023760;28;20045;-80
2021/03/23 00:53:24;;;;;;;12.38;5.65;;;7.60;80.70;;;7.77;65.88;101490.56;5023641;28;20572;-81
2021/03/23 00:55:51;;;;;;;12.55;6.25;;;7.60;80.70;;;7.75;65.80;101486.28;5023231;28;20092;-81
2021/03/23 00:58:18;;;;;;;10.75;6.20;;;7.60;80.70;;;7.76;66.19;101486.13;5022550;28;20076;-81
2021/03/23 01:00:45;;;;;;;12.25;7.55;;;7.60;80.80;;;7.74;66.59;101493.56;5024556;28;20091;-81
2021/03/23 01:03:12;;;;;;;16.17;8.15;;;7.60;80.90;;;7.72;66.25;101490.13;5025825;28;20058;-81
2021/03/23 01:05:39;;;;;;;13.63;7.55;;;7.60;80.70;;;7.75;65.83;101488.97;5027164;28;20053;-81
2021/03/23 01:08:07;;;;;;;13.95;8.75;;;7.60;80.90;;;7.76;66.50;101488.00;5026773;28;20049;-81
2021/03/23 01:10:35;;;;;;;14.70;9.32;;;7.60;80.90;;;7.75;66.17;101484.44;5028247;28;20049;-81
2021/03/23 01:13:02;;;;;;;16.52;8.93;;;7.60;81.30;;;7.74;66.41;101484.56;5027342;28;20410;-81
2021/03/23 01:15:31;;;;;;;16.05;9.65;;;7.50;80.90;;;7.74;66.15;101487.28;5028155;28;20113;-80
2021/03/23 01:17:59;;;;;;;17.50;9.88;;;7.50;80.80;;;7.75;65.65;101484.44;5027026;28;20045;-80
2021/03/23 01:20:28;;;;;;;17.35;10.27;;;7.50;81.00;;;7.74;66.33;101482.72;5027256;28;20089;-80
2021/03/23 01:22:56;;;;;;;16.30;10.20;;;7.50;81.00;;;7.69;65.99;101485.00;5025484;28;20046;-80
2021/03/23 01:25:24;;;;;;;18.52;10.77;;;7.60;81.00;;;7.68;66.35;101480.59;5025417;28;20053;-80
2021/03/23 01:27:52;;;;;;;18.27;10.15;;;7.50;81.10;;;7.67;66.41;101486.13;5026397;28;20053;-79
2021/03/23 01:30:22;;;;;;;18.40;11.32;;;7.50;81.10;;;7.70;66.31;101481.28;5026834;28;20522;-80
2021/03/23 01:32:49;;;;;;;18.27;10.98;;;7.50;81.30;;;7.71;66.56;101485.72;5026511;28;20126;-80
2021/03/23 01:35:18;;;;;;;19.17;11.27;;;7.50;81.30;;;7.69;65.92;101478.72;5026157;28;20535;-80
2021/03/23 01:37:45;;;;;;;17.55;11.00;;;7.50;81.30;;;7.69;66.62;101485.00;5026444;28;20057;-81
2021/03/23 01:40:14;;;;;;;17.48;11.02;;;7.50;81.30;;;7.67;66.72;101480.72;5026117;28;20045;-81
2021/03/23 01:42:45;;;;;;;18.55;11.85;;;7.50;81.80;;;7.67;66.56;101483.44;5027890;28;20068;-80
2021/03/23 01:45:26;;;;;;;17.20;10.90;;;7.50;81.50;;;7.67;66.88;101489.69;5026393;28;20052;-80
2021/03/23 01:47:55;;;;;;;19.85;12.60;;;7.50;81.70;;;7.64;67.38;101487.28;5027320;28;20041;-81
2021/03/23 01:50:23;;;;;;;18.35;11.48;;;7.50;82.00;;;7.66;67.24;101488.00;5025065;28;20065;-80
2021/03/23 01:53:10;;;;;;;20.77;12.32;;;7.50;82.00;;;7.65;66.79;101491.69;5026319;28;20112;-81
2021/03/23 01:55:38;;;;;;;18.70;11.93;;;7.50;81.60;;;7.66;66.76;101490.72;5025976;28;20084;-81
2021/03/23 01:58:07;;;;;;;21.65;12.50;;;7.50;81.30;;;7.67;66.37;101491.56;5026343;28;20105;-81
2021/03/23 02:00:34;;;;;;;19.55;12.32;;;7.50;81.40;;;7.65;66.65;101488.97;5024142;28;20049;-80
2021/03/23 02:03:03;;;;;;;20.88;12.48;;;7.50;81.40;;;7.68;66.95;101488.72;5026758;28;20079;-81
2021/03/23 02:05:33;;;;;;;18.92;11.63;;;7.50;81.70;;;7.68;66.75;101490.56;5027542;28;20095;-81
2021/03/23 02:08:03;;;;;;;17.98;12.40;;;7.50;81.60;;;7.64;66.93;101487.28;5026252;28;20046;-81
2021/03/23 02:10:30;;;;;;;19.42;12.40;;;7.50;81.60;;;7.65;66.42;101488.97;5025412;28;20053;-81
2021/03/23 02:12:58;;;;;;;20.60;13.68;;;7.50;81.70;;;7.63;66.13;101482.84;5024617;28;20045;-81
2021/03/23 02:15:26;;;;;;;21.77;13.52;;;7.50;81.10;;;7.64;65.99;101479.16;5026784;28;20053;-80
2021/03/23 02:18:12;;;;;;;20.83;12.50;;;7.50;80.90;;;7.69;66.35;101482.31;5024604;28;20080;-80
2021/03/23 02:21:15;;;;;;;22.15;13.50;;;7.50;80.80;;;7.66;66.16;101474.44;5026035;28;20582;-81
2021/03/23 02:23:45;;;;;;;23.80;13.82;;;7.50;81.10;;;7.65;66.14;101478.16;4954465;29;20051;-80
2021/03/23 02:26:16;;;;;;;22.90;12.93;;;7.50;80.90;;;7.67;66.29;101470.72;4954185;29;20090;-81
2021/03/23 02:28:52;;;;;;;23.20;12.85;;;7.60;80.80;;;7.69;65.41;101463.34;4990001;28;20061;-81
2021/03/23 02:31:28;;;;;;;23.23;12.48;;;7.60;79.80;;;7.68;65.73;101472.44;5025678;28;20060;-81
2021/03/23 02:33:56;;;;;;;22.15;12.88;;;7.60;80.60;;;7.70;65.63;101470.47;5024335;28;20054;-80
2021/03/23 02:36:24;;;;;;;20.90;12.20;;;7.60;80.60;;;7.71;66.50;101472.19;5032463;28;20136;-81
2021/03/23 02:38:51;;;;;;;21.67;12.45;;;7.60;80.70;;;7.72;66.48;101478.44;5026095;28;20048;-81
2021/03/23 02:41:19;;;;;;;25.35;12.38;;;7.60;80.60;;;7.74;66.31;101473.75;5025952;28;20065;-80
2021/03/23 02:43:47;;;;;;;22.98;12.70;;;7.60;80.80;;;7.72;66.46;101473.03;5024905;28;20046;-81
2021/03/23 02:46:14;;;;;;;21.70;12.32;;;7.60;80.50;;;7.68;65.90;101472.44;5031431;28;20064;-80
2021/03/23 02:48:42;;;;;;;20.65;11.93;;;7.60;80.70;;;7.70;65.71;101470.47;5023496;28;20041;-80
2021/03/23 02:51:13;;;;;;;23.40;11.65;;;7.60;80.80;;;7.69;65.49;101468.75;5023254;28;20049;-80
2021/03/23 02:53:42;;;;;;;22.48;12.38;;;7.60;80.70;;;7.69;65.59;101479.59;5023125;28;20059;-80
2021/03/23 02:56:09;;;;;;;20.85;12.52;;;7.60;80.50;;;7.68;66.00;101472.44;5024259;28;20046;-80
2021/03/23 02:58:36;;;;;;;21.17;11.93;;;7.60;80.60;;;7.67;66.41;101464.47;5025069;28;20076;-80
2021/03/23 03:01:04;;;;;;;21.95;12.45;;;7.60;80.80;;;7.69;66.73;101468.75;5025805;28;20414;-80
2021/03/23 03:03:31;;;;;;;19.38;11.65;;;7.60;80.90;;;7.70;66.21;101469.59;5023648;28;20119;-81
2021/03/23 03:05:58;;;;;;;20.02;11.68;;;7.60;81.00;;;7.70;66.73;101470.47;5023890;28;20053;-81
2021/03/23 03:08:26;;;;;;;22.35;13.02;;;7.60;81.10;;;7.70;66.94;101467.75;5025316;28;20045;-80
2021/03/23 03:10:54;;;;;;;25.45;12.98;;;7.60;81.20;;;7.70;66.59;101465.03;5024217;28;20137;-80
2021/03/23 03:13:23;;;;;;;21.13;12.75;;;7.60;80.60;;;7.71;65.87;101460.47;5024026;28;20124;-80
2021/03/23 03:15:51;;;;;;;24.08;12.73;;;7.60;80.90;;;7.73;66.18;101467.47;5025633;28;20058;-81
2021/03/23 03:18:19;;;;;;;20.23;12.32;;;7.60;80.90;;;7.74;67.34;101466.47;5027371;28;21011;-80
2021/03/23 03:20:46;;;;;;;23.25;12.70;;;7.60;81.50;;;7.74;66.50;101471.88;5024900;28;20049;-81
2021/03/23 03:23:13;;;;;;;28.52;14.65;;;7.60;81.30;;;7.73;66.89;101463.88;5022936;28;20053;-80
2021/03/23 03:25:39;;;;;;;21.98;12.90;;;7.60;80.90;;;7.70;66.82;101465.03;5023755;28;20057;-81
2021/03/23 03:28:07;;;;;;;24.52;13.55;;;7.60;81.10;;;7.69;67.00;101452.50;5025383;28;20065;-80
2021/03/23 03:30:38;;;;;;;26.90;13.07;;;7.60;81.10;;;7.68;67.01;101456.19;5023665;28;20049;-81
2021/03/23 03:33:08;;;;;;;25.47;14.07;;;7.60;81.40;;;7.69;66.33;101455.22;5025138;28;20058;-81
2021/03/23 03:35:37;;;;;;;21.13;13.25;;;7.60;81.00;;;7.70;66.20;101451.50;5023997;28;20304;-81
2021/03/23 03:38:06;;;;;;;23.30;13.07;;;7.60;80.70;;;7.71;66.74;101455.94;5023776;28;20045;-81
2021/03/23 03:40:37;;;;;;;22.85;13.35;;;7.60;81.10;;;7.70;66.59;101446.06;5024275;28;20557;-81
2021/03/23 03:43:05;;;;;;;24.52;14.02;;;7.60;81.30;;;7.72;67.09;101454.06;5022493;28;20038;-80
2021/03/23 03:45:33;;;;;;;24.33;14.00;;;7.60;81.20;;;7.72;66.65;101463.03;5024317;28;20076;-81
2021/03/23 03:48:00;;;;;;;23.30;13.80;;;7.60;81.50;;;7.68;66.92;101448.06;5022833;28;20038;-80
2021/03/23 03:50:30;;;;;;;23.58;13.32;;;7.60;81.00;;;7.69;67.69;101454.34;5023667;28;20048;-80
2021/03/23 03:52:57;;;;;;;22.63;13.25;;;7.60;81.70;;;7.63;67.48;101450.34;5037546;28;20049;-81
2021/03/23 03:55:27;;;;;;;22.42;13.02;;;7.60;81.80;;;7.68;67.57;101456.19;5038863;28;20084;-80
2021/03/23 03:57:54;;;;;;;24.90;14.13;;;7.60;81.80;;;7.70;67.86;101448.78;5023953;28;20048;-80
2021/03/23 04:00:25;;;;;;;24.15;13.40;;;7.60;81.80;;;7.70;66.80;101442.50;5023725;28;20078;-80
2021/03/23 04:02:52;;;;;;;25.40;13.70;;;7.60;81.60;;;7.70;67.15;101446.06;5023892;28;20076;-81
2021/03/23 04:05:23;;;;;;;22.45;13.02;;;7.60;81.40;;;7.69;66.63;101447.09;5047484;28;20056;-80
2021/03/23 04:07:50;;;;;;;24.00;14.13;;;7.60;81.80;;;7.69;67.29;101444.38;5023334;28;20045;-81
2021/03/23 04:10:19;;;;;;;26.42;14.18;;;7.60;81.70;;;7.71;66.53;101449.63;5024545;28;20046;-81
2021/03/23 04:12:47;;;;;;;22.85;13.02;;;7.60;81.30;;;7.69;67.49;101444.38;5022191;28;20046;-80
2021/03/23 04:15:18;;;;;;;22.88;12.90;;;7.60;81.70;;;7.72;66.99;101443.22;5024186;28;20045;-81
2021/03/23 04:17:45;;;;;;;21.60;13.27;;;7.60;82.00;;;7.71;66.95;101446.91;5022506;28;20073;-81
2021/03/23 04:20:15;;;;;;;23.73;12.88;;;7.60;81.80;;;7.69;67.26;101452.50;5022305;28;20411;-81
2021/03/23 04:22:42;;;;;;;23.90;13.30;;;7.60;81.80;;;7.68;67.75;101450.78;5024801;28;20049;-80
2021/03/23 04:25:12;;;;;;;23.13;12.95;;;7.60;81.90;;;7.66;67.52;101451.94;5023077;28;20042;-80
2021/03/23 04:27:39;;;;;;;21.70;12.23;;;7.50;81.60;;;7.64;67.76;101443.94;5022720;28;20052;-80
2021/03/23 04:30:08;;;;;;;22.00;13.77;;;7.60;82.10;;;7.69;66.89;101448.91;5024141;28;20037;-80
2021/03/23 04:32:36;;;;;;;24.70;13.57;;;7.60;82.00;;;7.66;67.48;101447.34;5023205;28;20050;-80
2021/03/23 04:35:05;;;;;;;24.67;12.85;;;7.50;81.80;;;7.64;67.08;101441.22;5023399;28;20045;-81
2021/03/23 04:37:33;;;;;;;21.52;12.88;;;7.50;81.80;;;7.62;67.54;101445.94;5023263;28;20099;-81
2021/03/23 04:40:00;;;;;;;22.67;13.30;;;7.50;82.00;;;7.61;66.83;101449.63;5022493;28;20718;-81
2021/03/23 04:42:27;;;;;;;27.00;14.40;;;7.50;81.50;;;7.60;67.68;101446.06;5022487;28;20053;-81
2021/03/23 04:44:53;;;;;;;21.42;12.93;;;7.50;81.80;;;7.58;67.45;101449.94;5045566;28;20106;-80
2021/03/23 04:47:20;;;;;;;28.00;14.35;;;7.50;81.80;;;7.62;67.31;101454.06;5023048;28;20054;-80
2021/03/23 04:49:47;;;;;;;21.17;13.02;;;7.50;81.80;;;7.62;67.52;101452.19;5022687;28;20064;-80
2021/03/23 04:52:14;;;;;;;22.77;13.18;;;7.50;82.10;;;7.62;67.20;101449.50;5022977;28;20050;-80
2021/03/23 04:54:41;;;;;;;23.45;13.05;;;7.50;82.10;;;7.64;67.68;101454.78;5022463;28;20642;-80
2021/03/23 04:57:09;;;;;;;23.10;13.88;;;7.50;82.20;;;7.60;67.64;101454.19;5023773;28;20057;-80
2021/03/23 04:59:36;;;;;;;24.90;13.57;;;7.50;82.30;;;7.59;67.58;101449.75;5023141;28;20053;-80
2021/03/23 05:02:03;;;;;;;25.73;14.02;;;7.50;82.00;;;7.62;67.95;101446.78;5023652;28;20046;-80
2021/03/23 05:04:30;;;;;;;22.92;13.27;;;7.50;82.50;;;7.69;67.71;101455.22;5021025;28;20108;-80
2021/03/23 05:06:56;;;;;;;26.00;13.32;;;7.50;82.50;;;7.69;67.24;101462.47;5022043;28;20104;-80
2021/03/23 05:09:23;;;;;;;20.60;12.90;;;7.50;82.40;;;7.65;67.92;101461.88;5024334;28;20042;-80
2021/03/23 05:11:51;;;;;;;22.23;13.60;;;7.50;82.40;;;7.64;67.25;101461.03;5023171;28;20112;-81
2021/03/23 05:14:18;;;;;;;25.42;13.73;;;7.50;82.00;;;7.62;66.85;101463.03;5021478;28;20135;-79
2021/03/23 05:16:44;;;;;;;26.65;13.82;;;7.50;81.90;;;7.61;67.64;101469.44;5018775;28;20050;-79
2021/03/23 05:19:11;;;;;;;26.77;13.93;;;7.50;82.10;;;7.61;67.07;101474.00;5019691;28;20518;-79
2021/03/23 05:21:38;;;;;;;24.27;14.05;;;7.50;82.00;;;7.61;66.92;101474.00;5019589;28;20110;-79
2021/03/23 05:24:06;;;;;;;32.13;13.80;;;7.50;82.20;;;7.62;67.42;101465.75;5019987;28;20483;-79
2021/03/23 05:26:33;;;;;;;27.10;15.07;;;7.50;82.00;;;7.64;67.29;101481.88;5020896;28;20195;-79
2021/03/23 05:29:01;;;;;;;30.23;16.13;;;7.50;82.20;;;7.63;67.64;101478.31;5021312;28;20046;-79
2021/03/23 05:31:28;;;;;;;25.95;14.73;;;7.50;82.20;;;7.64;66.99;101473.75;5018800;28;20501;-79
2021/03/23 05:33:55;;;;;;;30.90;15.95;;;7.50;82.10;;;7.65;66.92;101467.31;5020615;28;20056;-79
2021/03/23 05:36:22;;;;;;;31.25;17.08;;;7.50;81.60;;;7.65;67.24;101470.00;5019558;28;20046;-80
2021/03/23 05:38:49;;;;;;;37.88;17.98;;;7.50;81.60;;;7.63;66.94;101463.88;5019816;28;20107;-79
2021/03/23 05:41:26;;;;;;;32.78;18.02;;;7.50;81.50;;;7.63;67.14;101475.59;5020055;28;20049;-79
2021/03/23 05:44:16;;;;;;;34.25;17.98;;;7.50;81.60;;;7.67;66.31;101469.88;5020685;28;20047;-79
2021/03/23 05:46:43;;;;;;;35.63;18.30;;;7.50;81.10;;;7.64;66.22;101460.19;5019573;28;20046;-79
2021/03/23 05:49:30;;;;;;;35.47;17.77;;;7.50;81.20;;;7.68;67.15;101466.19;5019921;28;21069;-79
2021/03/23 05:52:05;;;;;;;34.75;18.95;;;7.50;81.60;;;7.66;66.64;101452.78;5026672;28;20128;-80
2021/03/23 05:54:40;;;;;;;32.50;18.00;;;7.60;81.80;;;7.70;66.91;101453.34;5047038;28;20111;-80
2021/03/23 05:57:21;;;;;;;37.28;19.17;;;7.60;81.50;;;7.69;66.88;101447.09;5023526;28;20064;-80
2021/03/23 05:59:56;;;;;;;36.38;19.13;;;7.60;81.60;;;7.68;66.22;101439.09;5024191;28;20092;-81
2021/03/23 06:02:42;;;;;;;32.53;19.45;;;7.60;81.30;;;7.68;66.61;101445.34;5024683;28;20041;-80
2021/03/23 06:05:37;;;;;;;38.22;19.75;;;7.60;81.30;;;7.69;65.99;101447.09;5023876;28;20058;-79
2021/03/23 06:08:16;;;;;;;36.53;18.77;;;7.60;80.50;;;7.69;66.82;101447.09;5024755;28;20056;-79
2021/03/23 06:10:43;;;;;;;33.13;19.15;;;7.60;80.70;;;7.75;66.30;101456.47;5025038;28;20045;-80
2021/03/23 06:13:24;;;;;;;32.85;18.73;;;7.60;80.80;;;7.71;67.03;101455.94;5039585;28;20069;-80
2021/03/23 06:16:11;;;;;;;35.95;19.45;;;7.60;81.20;;;7.73;66.90;101463.88;5023078;28;20128;-79
2021/03/23 06:18:52;;;;;;;34.53;19.45;;;7.60;81.10;;;7.70;66.72;101470.47;5024113;28;20041;-79
2021/03/23 06:21:24;;;;;;;33.58;19.40;;;7.70;81.20;;;7.73;66.40;101472.88;5023353;28;20100;-80
2021/03/23 06:24:04;;;;;;;37.65;19.70;;;7.70;80.50;;;7.74;66.46;101473.75;5024087;28;20065;-80
2021/03/23 06:26:46;;;;;;;36.40;18.98;;;7.70;80.60;;;7.75;66.44;101473.59;5046576;28;20046;-79
2021/03/23 06:29:37;;;;;;;31.50;18.38;;;7.70;81.00;;;7.76;66.83;101472.59;5025508;28;20500;-80
2021/03/23 06:32:38;;;;;;;36.08;19.30;;;7.70;80.80;;;7.78;66.36;101478.72;5022631;28;20510;-80
2021/03/23 06:35:11;;;;;;;32.92;18.52;;;7.80;80.40;;;7.76;65.86;101483.44;5038575;28;20053;-80
2021/03/23 06:37:40;;;;;;;32.75;18.52;;;7.80;79.80;;;7.79;65.99;101496.69;5022865;28;20451;-79
2021/03/23 06:40:14;;;;;;;33.25;18.30;;;7.80;80.00;;;7.83;66.49;101502.69;5021371;28;20038;-79
2021/03/23 06:42:44;;;;;;;33.95;19.25;;;7.90;80.10;;;7.85;66.36;101498.00;5020680;28;20057;-79
2021/03/23 06:45:32;;;;;;;31.10;18.85;;;7.90;79.90;;;7.87;66.35;101497.84;5023453;28;20133;-79
2021/03/23 06:48:23;;;;;;;32.72;18.88;;;7.90;80.30;;;7.88;66.82;101495.00;5022792;28;20407;-79
2021/03/23 06:51:05;;;;;;;35.60;19.70;;;7.90;80.50;;;7.88;66.61;101495.00;5021473;28;20795;-79
2021/03/23 06:53:31;;;;;;;34.58;19.10;;;8.00;80.10;;;7.87;66.78;101498.69;5045702;28;20429;-79
2021/03/23 06:56:20;;;;;;;34.45;19.33;;;8.00;79.60;;;7.89;65.65;101498.56;5022998;28;20095;-79
2021/03/23 06:58:47;;;;;;;35.13;18.98;;;8.00;79.60;;;7.93;66.28;101499.97;5026513;28;20068;-79
2021/03/23 07:01:19;;;;;;;35.47;19.35;;;8.00;80.00;;;7.94;67.02;101493.53;5021331;28;20046;-79
2021/03/23 07:03:51;;;;;;;36.85;18.88;;;8.00;80.40;;;7.89;66.94;101491.28;5030138;28;20076;-79
2021/03/23 07:06:29;;;;;;;37.88;19.58;;;8.00;80.00;;;7.89;66.55;101502.13;5023750;28;20048;-79
2021/03/23 07:09:16;;;;;;;34.00;18.73;;;8.00;80.00;;;7.91;66.65;101496.56;5023476;28;20053;-79
2021/03/23 07:11:59;;;;;;;36.25;20.25;;;8.00;79.70;;;7.92;66.22;101495.53;5016802;28;20056;-79
2021/03/23 07:14:35;;;;;;;35.75;19.75;;;8.00;79.60;;;7.87;65.70;101492.44;5016768;28;20103;-79
2021/03/23 07:17:28;;;;;;;36.38;20.13;;;8.00;79.70;;;7.86;65.78;101490.72;5017123;28;20053;-79
2021/03/23 07:20:08;;;;;;;37.85;19.27;;;8.10;79.30;;;7.92;66.49;101490.13;5027121;28;20124;-79
2021/03/23 07:22:45;;;;;;;39.90;20.80;;;8.10;79.40;;;7.95;66.72;101485.28;5017561;28;20046;-79
2021/03/23 07:25:40;;;;;;;36.65;20.80;;;8.10;79.60;;;7.96;66.09;101486.16;5016147;28;20057;-79
2021/03/23 07:28:29;;;;;;;39.30;20.38;;;8.10;79.30;;;7.95;66.74;101490.69;5021736;28;20714;-79
2021/03/23 07:31:10;;;;;;;36.88;20.17;;;8.20;79.70;;;7.98;66.02;101486.88;5023386;28;20053;-79
2021/03/23 07:33:54;;;;;;;39.63;20.63;;;8.30;79.30;;;8.04;65.65;101483.56;5023226;28;20131;-79
2021/03/23 07:36:27;;;;;;;40.72;21.42;;;8.30;78.20;;;8.06;65.99;101486.16;5021841;28;20255;-79
2021/03/23 07:39:00;;;;;;;41.97;21.20;;;8.40;78.70;;;8.05;65.87;101476.28;5021480;28;20053;-79
2021/03/23 07:41:35;;;;;;;46.22;24.10;;;8.40;78.40;;;8.07;65.72;101491.41;5022552;28;20494;-78
2021/03/23 07:44:12;;;;;;;44.70;22.52;;;8.40;78.20;;;8.07;66.35;101493.25;5022335;28;20136;-79
2021/03/23 07:46:46;;;;;;;47.30;23.63;;;8.40;78.30;;;8.08;65.55;101495.84;5013724;28;20045;-78
2021/03/23 07:49:39;;;;;;;43.63;21.90;;;8.40;77.50;;;8.07;65.64;101502.25;5019337;28;20041;-78
2021/03/23 07:52:23;;;;;;;41.33;21.77;;;8.40;78.10;;;8.09;65.98;101500.28;5028758;28;20450;-78
2021/03/23 07:54:51;;;;;;;44.33;22.83;;;8.50;78.50;;;8.11;65.92;101500.97;5025516;28;20041;-79
2021/03/23 07:58:06;;;;;;;48.45;23.52;;;8.50;78.30;;;8.16;66.28;101504.09;5018464;28;20125;-79
2021/03/23 08:01:03;;;;;;;49.15;23.20;;;8.60;78.80;;;8.20;66.54;101508.22;5031723;28;20459;-78
2021/03/23 08:04:07;;;;;;;40.45;20.40;;;8.60;78.30;;;8.20;66.43;101510.94;5011794;28;20056;-78
2021/03/23 08:06:50;;;;;;;41.50;22.20;;;8.70;78.60;;;8.17;65.98;101511.25;5025716;28;20402;-78
2021/03/23 08:09:46;;;;;;;43.88;22.40;;;8.80;77.60;;;8.21;66.32;101512.66;5030794;28;20068;-79
2021/03/23 08:12:37;;;;;;;40.40;22.52;;;8.90;77.30;;;8.27;67.04;101518.50;5026027;28;20564;-78
2021/03/23 08:15:31;;;;;;;40.22;21.35;;;9.00;77.70;;;8.27;66.15;101513.09;5024999;28;20052;-78
2021/03/23 08:18:31;;;;;;;44.25;22.50;;;9.10;77.30;;;8.25;66.35;101517.81;5011013;28;20057;-79
2021/03/23 08:21:36;;;;;;;44.58;22.38;;;9.20;76.50;;;8.26;65.65;101520.34;5025050;28;20046;-79
2021/03/23 08:24:28;;;;;;;43.00;21.42;;;9.20;76.20;;;8.35;66.71;101524.06;5024477;28;20108;-79
2021/03/23 08:27:35;;;;;;;40.13;21.33;;;9.30;76.00;;;8.40;67.93;101519.06;5019442;28;20049;-79
2021/03/23 08:30:18;;;;;;;43.63;22.20;;;9.50;77.00;;;8.42;66.83;101517.09;5015451;28;20487;-79
2021/03/23 08:32:58;;;;;;;41.33;22.58;;;9.70;75.30;;;8.42;67.38;101519.81;5013713;28;20492;-79
2021/03/23 08:35:52;;;;;;;44.60;22.00;;;9.80;75.10;;;8.47;67.31;101516.63;5029299;28;20045;-79
2021/03/23 08:38:33;;;;;;;44.60;22.80;;;9.90;74.90;;;8.52;67.56;101515.19;5025375;28;20073;-79
2021/03/23 08:41:10;;;;;;;;;;;10.00;75.00;;;8.58;66.96;101509.19;5021721;28;20061;-79
2021/03/23 08:43:39;;;;;;;50.00;21.95;;;10.10;74.30;;;8.60;67.88;101500.91;5024672;28;19929;-79
2021/03/23 08:46:15;;;;;;;45.17;23.23;;;10.20;74.40;;;8.63;66.90;101503.31;5021993;28;20042;-79
2021/03/23 08:48:48;;;;;;;48.90;22.92;;;10.30;73.70;;;8.66;67.54;101503.00;5029990;28;20068;-79
2021/03/23 08:51:21;;;;;;;44.03;22.35;;;10.40;73.50;;;8.71;67.05;101502.59;5025399;28;20499;-78
2021/03/23 08:53:56;;;;;;;50.15;22.90;;;10.50;73.20;;;8.76;67.84;101513.88;5027319;28;20114;-78
2021/03/23 08:56:59;;;;;;;47.08;22.88;;;10.60;73.10;;;8.78;67.09;101509.13;5019256;28;20050;-78
2021/03/23 08:59:56;;;;;;;48.03;23.40;;;10.70;72.60;;;8.87;67.96;101512.81;5022299;28;20053;-80
2021/03/23 09:02:48;;;;;;;46.25;21.92;;;10.80;73.00;;;8.95;67.24;101511.06;5021383;28;20058;-79
2021/03/23 09:05:55;;;;;;;40.88;20.73;;;10.90;72.70;;;9.03;67.84;101513.03;5023153;28;20100;-78
2021/03/23 09:08:40;;;;;;;46.03;23.67;;;11.00;72.70;;;9.11;68.23;101499.53;5016639;28;20042;-78
2021/03/23 09:11:40;;;;;;;48.67;22.67;;;11.10;72.50;;;9.17;67.80;101500.81;5025153;28;20042;-79
2021/03/23 09:14:26;;;;;;;45.72;22.65;;;11.20;72.00;;;9.27;68.58;101493.47;5024910;28;20041;-78
2021/03/23 09:17:36;;;;;;;49.75;23.15;;;11.30;72.90;;;9.32;66.47;101498.44;5029332;28;20057;-79
2021/03/23 09:20:55;;;;;;;46.60;22.55;;;11.40;71.30;;;9.45;68.02;101500.81;5021361;28;20052;-78
2021/03/23 09:23:51;;;;;;;47.58;22.38;;;11.50;72.30;;;9.54;67.99;101505.31;5019862;28;20050;-78
2021/03/23 09:26:48;;;;;;;47.13;21.25;;;11.60;71.90;;;9.56;67.07;101503.31;5022905;28;20423;-78
2021/03/23 09:29:45;;;;;;;38.72;21.63;;;11.70;71.20;;;9.57;66.82;101499.56;5034385;28;20120;-78
2021/03/23 09:32:20;;;;;;;48.13;22.23;;;11.70;71.10;;;9.59;66.05;101489.38;4983033;28;20123;-78
2021/03/23 09:35:22;;;;;;;45.30;23.05;;;11.70;70.20;;;9.61;66.53;101489.25;5025867;28;20060;-78
2021/03/23 09:37:52;;;;;;;;;;;11.70;70.80;;;9.62;67.09;101491.81;5022379;28;20052;-78
2021/03/23 09:40:56;;;;;;;39.95;20.45;;;11.60;71.00;;;9.65;67.74;101486.03;5033749;28;20236;-78
2021/03/23 09:43:36;;;;;;;43.58;22.85;;;11.70;71.60;;;9.71;67.04;101484.56;5018601;28;20061;-78
2021/03/23 09:46:36;;;;;;;46.60;21.75;;;11.70;71.30;;;9.71;65.90;101490.88;5020874;28;20061;-78
2021/03/23 09:49:17;;;;;;;54.13;22.50;;;11.60;70.90;;;9.77;66.47;101487.53;5029700;28;20041;-78
2021/03/23 09:51:50;;;;;;;40.53;20.88;;;11.70;71.50;;;9.81;66.13;101488.09;5026060;28;20460;-81
2021/03/23 09:54:24;;;;;;;45.60;21.58;;;11.70;71.50;;;9.85;65.86;101491.34;5029725;28;20038;-78
2021/03/23 09:56:52;;;;;;;36.03;19.35;;;11.70;71.00;;;9.86;65.55;101487.59;5026738;28;20056;-78
2021/03/23 09:59:23;;;;;;;35.92;19.75;;;11.70;70.50;;;9.91;65.41;101488.00;5022045;28;20033;-78
2021/03/23 10:02:01;;;;;;;39.78;21.23;;;11.70;71.00;;;9.93;65.75;101477.81;5026814;28;20069;-78
2021/03/23 10:04:34;;;;;;;36.38;18.98;;;11.70;70.80;;;10.00;65.49;101484.34;5032140;28;20046;-78
2021/03/23 10:07:01;;;;;;;40.38;18.70;;;11.80;71.00;;;10.01;64.78;101482.47;5034262;28;20455;-80
2021/03/23 10:09:32;;;;;;;36.92;18.52;;;11.80;69.90;;;10.03;64.72;101483.16;5020866;28;20103;-79
2021/03/23 10:12:00;;;;;;;34.00;18.58;;;11.80;70.10;;;10.05;65.07;101471.13;5023791;28;20656;-77
2021/03/23 10:14:40;;;;;;;36.78;17.33;;;11.80;70.50;;;10.06;64.01;101461.94;5034002;28;20099;-79
2021/03/23 10:17:15;;;;;;;32.83;17.27;;;11.80;69.20;;;10.05;63.80;101468.41;5024706;28;20041;-77
2021/03/23 10:19:48;;;;;;;35.58;17.88;;;11.70;69.10;;;10.07;64.08;101458.22;5018200;28;20399;-77
2021/03/23 10:22:18;;;;;;;39.05;17.30;;;11.70;69.70;;;10.12;63.78;101453.16;5028545;28;20053;-77
2021/03/23 10:24:47;;;;;;;35.20;19.23;;;11.80;69.70;;;10.20;63.96;101456.94;5017349;28;20045;-77
2021/03/23 10:27:20;;;;;;;37.53;18.58;;;11.80;69.70;;;10.21;63.84;101458.66;5025930;28;20045;-77
2021/03/23 10:30:05;;;;;;;32.20;18.02;;;11.80;69.70;;;10.21;64.07;101450.50;5023600;28;20415;-77
2021/03/23 10:32:44;;;;;;;37.45;17.52;;;11.80;69.70;;;10.19;63.96;101450.66;5025251;28;20038;-77
2021/03/23 10:35:22;;;;;;;31.45;17.48;;;11.80;69.10;;;10.23;64.50;101452.03;5023571;28;20046;-77
2021/03/23 10:38:12;;;;;;;34.83;18.02;;;11.80;70.20;;;10.27;64.39;101447.16;5010684;28;20049;-77
2021/03/23 10:40:40;;;;;;;36.17;18.80;;;11.90;69.60;;;10.28;64.37;101451.56;5022706;28;20045;-78
2021/03/23 10:43:12;;;;;;;33.60;17.73;;;11.90;69.70;;;10.34;64.75;101454.53;5022511;28;20091;-76
2021/03/23 10:45:42;;;;;;;34.92;19.20;;;11.90;70.10;;;10.37;63.81;101453.34;5024412;28;20060;-76